Time;durP1;ratioP1;P1;durP2;ratioP2;P2;SDS_P1;SDS_P2;PMS_P1;PMS_P2;Temp;Humidity;BMP_temperature;BMP_pressure;BME280_temperature;BME280_humidity;BME280_pressure;Samples;Min_cycle;Max_cycle;Signal;HPM_P1;HPM_P2
2021/01/11 00:00:52;;;;;;;18.39;9.70;;;;;;;-0.55;71.02;99942.47;335435;117;1961995;-72
2021/01/11 00:01:58;;;;;;;15.49;8.48;;;;;;;-0.57;71.19;99944.41;340250;116;1964912;-73
2021/01/11 00:03:04;;;;;;;12.94;6.93;;;;;;;-0.57;71.02;99947.06;345134;118;1961905;-72
2021/01/11 00:04:11;;;;;;;13.62;7.26;;;;;;;-0.57;71.24;99936.45;315904;118;2521954;-72
2021/01/11 00:05:17;;;;;;;12.74;6.93;;;;;;;-0.55;70.96;99939.82;341993;117;1962915;-72
2021/01/11 00:06:23;;;;;;;13.59;6.54;;;;;;;-0.57;71.12;99929.32;340599;117;1962004;-72
2021/01/11 00:07:29;;;;;;;13.82;6.88;;;;;;;-0.59;71.21;99925.95;301921;116;2730033;-72
2021/01/11 00:08:34;;;;;;;12.37;7.07;;;;;;;-0.60;71.13;99921.62;317759;118;1960883;-74
2021/01/11 00:09:39;;;;;;;11.57;6.82;;;;;;;-0.63;71.24;99913.92;332006;118;1965040;-72
2021/01/11 00:10:45;;;;;;;13.46;7.28;;;;;;;-0.65;71.45;99913.20;342894;115;1962022;-72
2021/01/11 00:11:50;;;;;;;12.67;6.82;;;;;;;-0.67;71.56;99910.67;343660;118;1962907;-72
2021/01/11 00:12:57;;;;;;;10.53;6.19;;;;;;;-0.65;71.68;99909.72;343437;117;1962928;-72
2021/01/11 00:14:03;;;;;;;11.81;6.63;;;;;;;-0.66;71.70;99906.23;325183;118;2303936;-72
2021/01/11 00:15:10;;;;;;;12.48;7.14;;;;;;;-0.69;71.80;99909.11;344430;117;1965089;-72
2021/01/11 00:16:18;;;;;;;11.73;6.64;;;;;;;-0.68;71.81;99910.81;339652;118;1962012;-72
2021/01/11 00:17:23;;;;;;;15.53;7.29;;;;;;;-0.68;71.78;99909.00;344623;115;1961991;-72
2021/01/11 00:18:28;;;;;;;13.70;7.69;;;;;;;-0.70;71.79;99921.53;340533;116;1962929;-72
2021/01/11 00:19:35;;;;;;;13.33;6.65;;;;;;;-0.71;71.77;99909.26;344662;118;1962008;-71
2021/01/11 00:20:42;;;;;;;15.62;7.07;;;;;;;-0.69;71.85;99917.06;337688;117;1962022;-72
2021/01/11 00:21:50;;;;;;;13.09;7.12;;;;;;;-0.70;71.80;99916.23;344388;118;1961949;-72
2021/01/11 00:22:56;;;;;;;12.91;7.77;;;;;;;-0.70;71.88;99913.58;321317;118;1962002;-72
2021/01/11 00:24:01;;;;;;;12.75;7.43;;;;;;;-0.70;71.83;99916.23;339084;116;1961949;-72
2021/01/11 00:25:08;;;;;;;14.98;7.53;;;;;;;-0.70;71.79;99916.23;342040;118;1961914;-72
2021/01/11 00:26:15;;;;;;;13.37;7.37;;;;;;;-0.69;71.93;99920.59;341545;119;1961983;-72
2021/01/11 00:27:20;;;;;;;12.93;7.66;;;;;;;-0.71;71.93;99921.69;328783;116;1962045;-72
2021/01/11 00:28:26;;;;;;;15.82;8.42;;;;;;;-0.71;71.87;99925.17;343922;116;1961934;-73
2021/01/11 00:29:31;;;;;;;12.96;7.03;;;;;;;-0.72;71.85;99923.47;342776;118;1962012;-72
2021/01/11 00:30:38;;;;;;;13.62;7.25;;;;;;;-0.70;71.91;99926.01;328613;116;2248921;-72
2021/01/11 00:31:44;;;;;;;14.00;7.78;;;;;;;-0.70;71.94;99926.84;339312;115;1964032;-72
2021/01/11 00:32:50;;;;;;;12.39;7.04;;;;;;;-0.70;71.92;99928.66;344276;117;1962046;-72
2021/01/11 00:33:56;;;;;;;16.58;7.90;;;;;;;-0.69;72.04;99925.02;342122;118;1963972;-72
2021/01/11 00:35:03;;;;;;;13.18;7.41;;;;;;;-0.67;71.99;99923.94;343528;116;1961959;-72
2021/01/11 00:36:11;;;;;;;14.78;8.26;;;;;;;-0.68;71.97;99932.87;344645;118;1961978;-72
2021/01/11 00:37:17;;;;;;;16.08;8.94;;;;;;;-0.68;71.92;99932.03;344444;117;1961970;-72
2021/01/11 00:38:22;;;;;;;16.04;8.23;;;;;;;-0.68;72.03;99937.34;319587;118;1962040;-72
2021/01/11 00:39:28;;;;;;;17.86;9.36;;;;;;;-0.68;72.12;99935.52;336512;118;1961988;-72
2021/01/11 00:40:36;;;;;;;15.44;9.11;;;;;;;-0.67;72.15;99937.20;345024;118;1961975;-72
2021/01/11 00:41:43;;;;;;;15.22;9.66;;;;;;;-0.67;72.09;99934.55;336046;118;1961946;-72
2021/01/11 00:42:48;;;;;;;15.77;9.07;;;;;;;-0.67;72.11;99933.70;343984;117;1961884;-72
2021/01/11 00:43:54;;;;;;;18.97;9.77;;;;;;;-0.66;72.14;99932.76;345028;115;1961911;-72
2021/01/11 00:45:10;;;;;;;16.91;8.31;;;;;;;-0.63;72.11;99936.97;312268;118;2590896;-72
2021/01/11 00:46:26;;;;;;;15.53;8.87;;;;;;;-0.64;72.16;99929.95;326147;117;1961968;-70
2021/01/11 00:47:38;;;;;;;19.03;9.63;;;;;;;-0.60;72.18;99926.09;345117;117;1961961;-71
2021/01/11 00:48:44;;;;;;;18.81;9.45;;;;;;;-0.59;72.14;99923.30;345948;116;1961986;-70
2021/01/11 00:49:51;;;;;;;16.20;9.57;;;;;;;-0.58;72.10;99921.48;315803;120;1962005;-72
2021/01/11 00:50:58;;;;;;;17.52;9.48;;;;;;;-0.55;72.04;99929.20;342638;114;1960891;-72
2021/01/11 00:52:04;;;;;;;16.71;9.08;;;;;;;-0.54;71.99;99923.75;310070;118;2587993;-71
2021/01/11 00:53:10;;;;;;;14.79;8.27;;;;;;;-0.50;71.93;99921.70;346214;116;1961898;-71
2021/01/11 00:54:15;;;;;;;16.12;9.00;;;;;;;-0.50;71.97;99922.54;356006;108;1960760;-70
2021/01/11 00:55:22;;;;;;;16.10;9.22;;;;;;;-0.43;71.92;99932.63;355043;112;1961006;-71
2021/01/11 00:56:34;;;;;;;17.02;9.22;;;;;;;-0.41;71.80;99926.23;353344;111;1961998;-70
2021/01/11 00:57:43;;;;;;;17.14;9.52;;;;;;;-0.37;71.63;99926.80;333474;111;1960722;-72
2021/01/11 00:58:51;;;;;;;18.44;9.65;;;;;;;-0.32;71.58;99935.22;351459;114;1961981;-72
2021/01/11 00:59:58;;;;;;;17.54;10.87;;;;;;;-0.30;71.44;99935.94;352385;114;1962032;-73
2021/01/11 01:01:08;;;;;;;18.07;10.37;;;;;;;-0.24;71.41;99936.27;354583;114;1961932;-72
2021/01/11 01:02:14;;;;;;;17.09;10.30;;;;;;;-0.21;71.27;99932.52;356419;114;1961964;-72
2021/01/11 01:03:20;;;;;;;19.37;11.01;;;;;;;-0.19;71.09;99935.02;355522;114;1963099;-72
2021/01/11 01:04:26;;;;;;;18.42;10.86;;;;;;;-0.17;71.08;99931.27;306546;114;2821942;-72
2021/01/11 01:05:41;;;;;;;18.29;9.91;;;;;;;-0.16;70.97;99934.76;332641;111;1961906;-71
2021/01/11 01:06:47;;;;;;;17.30;9.98;;;;;;;-0.14;70.98;99938.13;349300;115;1962825;-71
2021/01/11 01:07:52;;;;;;;19.71;10.30;;;;;;;-0.13;71.01;99934.49;343620;118;1961948;-71
2021/01/11 01:08:59;;;;;;;17.38;10.51;;;;;;;-0.13;70.87;99939.80;342920;116;1962086;-70
2021/01/11 01:10:05;;;;;;;21.91;13.24;;;;;;;-0.11;70.90;99937.86;305111;118;2716955;-71
2021/01/11 01:11:22;;;;;;;22.76;13.22;;;;;;;-0.09;70.86;99942.08;344189;115;1964018;-71
2021/01/11 01:12:28;;;;;;;20.11;10.70;;;;;;;-0.06;70.87;99951.59;341783;119;1961923;-72
2021/01/11 01:13:34;;;;;;;19.17;9.66;;;;;;;-0.02;70.80;99947.72;312073;116;2695926;-71
2021/01/11 01:14:40;;;;;;;18.14;10.77;;;;;;;-0.01;70.56;99944.91;353349;112;1961987;-72
2021/01/11 01:15:45;;;;;;;19.02;10.79;;;;;;;0.01;70.36;99942.14;353951;114;1962982;-72
2021/01/11 01:16:52;;;;;;;19.53;10.78;;;;;;;0.04;70.38;99938.38;356356;112;1962080;-72
2021/01/11 01:17:59;;;;;;;19.30;10.82;;;;;;;0.07;70.38;99938.11;317021;114;2704954;-72
2021/01/11 01:19:04;;;;;;;19.61;11.46;;;;;;;0.10;70.39;99938.67;355234;113;1961898;-72
2021/01/11 01:20:16;;;;;;;21.05;11.31;;;;;;;0.15;70.28;99941.78;354828;112;1961998;-72
2021/01/11 01:21:22;;;;;;;21.43;11.54;;;;;;;0.19;70.34;99945.03;310700;112;2795989;-72
2021/01/11 01:22:27;;;;;;;21.87;12.59;;;;;;;0.24;70.13;99948.14;331982;114;1961913;-72
2021/01/11 01:23:33;;;;;;;21.43;11.97;;;;;;;0.30;69.93;99946.76;353631;112;1961902;-72
2021/01/11 01:24:38;;;;;;;21.42;13.57;;;;;;;0.34;69.80;99948.16;351641;112;1962969;-72
2021/01/11 01:25:44;;;;;;;28.70;15.63;;;;;;;0.37;69.65;99945.23;352967;112;1963997;-72
2021/01/11 01:26:50;;;;;;;24.82;14.39;;;;;;;0.37;69.53;99945.23;354528;112;1962045;-72
2021/01/11 01:27:55;;;;;;;25.37;14.62;;;;;;;0.34;69.60;99948.99;333718;112;2400964;-71
2021/01/11 01:29:00;;;;;;;23.77;13.61;;;;;;;0.30;69.57;99944.94;330926;112;1961917;-72
2021/01/11 01:30:10;;;;;;;25.63;14.92;;;;;;;0.23;69.76;99945.59;354017;112;1961884;-72
2021/01/11 01:31:15;;;;;;;25.44;15.47;;;;;;;0.17;69.84;99950.47;354516;109;1962936;-71
2021/01/11 01:32:22;;;;;;;26.13;15.33;;;;;;;0.10;69.90;99943.98;367066;109;1961897;-71
2021/01/11 01:33:28;;;;;;;26.48;15.78;;;;;;;0.03;70.05;99947.30;341120;109;2495072;-72
2021/01/11 01:34:33;;;;;;;30.22;15.44;;;;;;;-0.02;70.04;99943.24;337421;109;1962009;-72
2021/01/11 01:35:38;;;;;;;24.57;15.17;;;;;;;-0.08;70.27;99943.77;370387;109;1963925;-73
2021/01/11 01:36:44;;;;;;;23.02;12.94;;;;;;;-0.12;70.58;99946.81;368998;108;1961960;-72
2021/01/11 01:37:51;;;;;;;23.56;14.75;;;;;;;-0.12;70.49;99944.16;367343;108;1961895;-72
2021/01/11 01:38:56;;;;;;;28.02;17.58;;;;;;;-0.06;70.29;99940.97;311552;109;2234320;-71
2021/01/11 01:40:02;;;;;;;26.56;16.81;;;;;;;-0.02;70.16;99945.89;342779;108;1961913;-71
2021/01/11 01:41:08;;;;;;;29.06;16.63;;;;;;;0.03;70.13;99944.64;367533;109;1962481;-71
2021/01/11 01:42:13;;;;;;;26.19;15.21;;;;;;;0.09;70.02;99949.45;368062;109;1961978;-71
2021/01/11 01:43:19;;;;;;;24.01;14.52;;;;;;;0.12;70.01;99950.02;369633;108;1962006;-72
2021/01/11 01:44:25;;;;;;;29.09;16.60;;;;;;;0.16;69.98;99951.45;326005;109;2721029;-71
2021/01/11 01:45:30;;;;;;;28.48;15.37;;;;;;;0.19;69.92;99953.00;340221;109;1962020;-72
2021/01/11 01:46:37;;;;;;;30.74;18.32;;;;;;;0.23;69.92;99953.56;368754;107;1961985;-72
2021/01/11 01:47:44;;;;;;;30.34;17.81;;;;;;;0.25;69.80;99952.47;369121;108;1961936;-72
2021/01/11 01:48:49;;;;;;;29.86;17.73;;;;;;;0.23;69.50;99962.37;366227;109;1961886;-72
2021/01/11 01:49:55;;;;;;;33.43;18.46;;;;;;;0.13;69.71;99956.16;367880;109;1961909;-71
2021/01/11 01:51:00;;;;;;;27.09;15.42;;;;;;;0.04;69.96;99949.84;366643;109;1961934;-72
2021/01/11 01:52:07;;;;;;;30.76;17.68;;;;;;;-0.05;70.13;99947.98;368579;109;1961967;-72
2021/01/11 01:53:13;;;;;;;28.01;16.50;;;;;;;-0.13;70.37;99950.42;369474;109;1961972;-72
2021/01/11 01:54:19;;;;;;;24.71;14.75;;;;;;;-0.20;70.44;99947.46;365766;109;1961940;-72
2021/01/11 01:55:25;;;;;;;23.21;14.83;;;;;;;-0.24;70.72;99956.64;362463;112;1962003;-71
2021/01/11 01:56:33;;;;;;;24.99;14.23;;;;;;;-0.24;71.00;99953.98;370531;109;1961958;-71
2021/01/11 01:57:41;;;;;;;21.85;13.33;;;;;;;-0.20;70.84;99959.91;367895;108;1962963;-72
2021/01/11 01:58:47;;;;;;;21.34;12.24;;;;;;;-0.16;70.71;99961.31;369213;108;1961882;-72
2021/01/11 01:59:54;;;;;;;22.82;12.96;;;;;;;-0.11;70.59;99961.77;370155;109;1962092;-71
2021/01/11 02:01:00;;;;;;;27.39;13.83;;;;;;;-0.07;70.49;99964.03;346263;109;1961881;-72
2021/01/11 02:02:05;;;;;;;23.29;13.43;;;;;;;-0.02;70.47;99975.11;367987;108;1963685;-72
2021/01/11 02:03:11;;;;;;;20.33;12.02;;;;;;;0.00;70.38;99969.69;367993;108;1961996;-72
2021/01/11 02:04:16;;;;;;;20.77;12.28;;;;;;;0.07;70.50;99962.84;367102;109;1962005;-71
2021/01/11 02:05:21;;;;;;;20.87;12.45;;;;;;;0.14;70.36;99971.15;367455;109;1962026;-71
2021/01/11 02:06:32;;;;;;;21.68;12.43;;;;;;;0.19;70.27;99964.47;366394;109;1963000;-72
2021/01/11 02:07:44;;;;;;;21.66;12.21;;;;;;;0.27;70.28;99960.31;352162;109;2251888;-71
2021/01/11 02:08:54;;;;;;;;;;;;;;;0.32;69.83;99968.70;372966;109;1960997;-73
2021/01/11 02:10:03;;;;;;;20.84;11.62;;;;;;;0.38;69.84;99961.05;367026;109;1961821;-72
2021/01/11 02:11:14;;;;;;;17.61;10.30;;;;;;;0.44;69.31;99971.14;364216;109;1961910;-72
2021/01/11 02:12:25;;;;;;;20.46;11.39;;;;;;;0.49;69.28;99967.25;371498;109;1962016;-71
2021/01/11 02:13:34;;;;;;;16.66;9.87;;;;;;;0.44;69.04;99960.52;329337;109;2915983;-71
2021/01/11 02:14:46;;;;;;;18.04;10.79;;;;;;;0.37;68.90;99967.36;340992;107;2512053;-72
2021/01/11 02:16:13;;;;;;;19.65;11.19;;;;;;;0.28;68.93;99965.48;369244;108;1961924;-71
2021/01/11 02:17:25;;;;;;;18.73;10.46;;;;;;;0.15;69.16;99965.69;341389;109;2222976;-72
2021/01/11 02:18:36;;;;;;;24.92;12.64;;;;;;;0.05;69.43;99966.61;369123;109;1961961;-72
2021/01/11 02:20:17;;;;;;;19.97;11.39;;;;;;;-0.06;69.77;99957.73;365834;109;1962052;-72
2021/01/11 02:21:38;;;;;;;21.26;11.54;;;;;;;-0.16;69.89;99959.52;350012;109;1961907;-71
2021/01/11 02:23:08;;;;;;;21.61;12.14;;;;;;;-0.25;70.24;99961.11;366118;109;1960795;-71
2021/01/11 02:24:20;;;;;;;23.98;13.21;;;;;;;-0.32;70.48;99953.80;367027;109;1961994;-71
2021/01/11 02:25:29;;;;;;;22.38;11.77;;;;;;;-0.41;70.95;99955.42;335195;109;2581828;-73
2021/01/11 02:26:55;;;;;;;23.58;11.87;;;;;;;-0.37;70.57;99955.99;315866;109;2177755;-72
2021/01/11 02:28:04;;;;;;;22.77;12.31;;;;;;;-0.35;70.73;99951.41;368186;109;1962981;-72
2021/01/11 02:29:13;;;;;;;19.32;10.71;;;;;;;-0.27;70.87;99949.78;347124;109;1962918;-72
2021/01/11 02:30:31;;;;;;;18.74;10.02;;;;;;;-0.18;70.79;99953.49;306635;111;2202686;-71
2021/01/11 02:31:41;;;;;;;19.91;11.19;;;;;;;-0.11;70.65;99948.48;363146;111;1961913;-72
2021/01/11 02:32:53;;;;;;;22.13;11.50;;;;;;;-0.04;70.47;99949.66;364515;109;1961944;-71
2021/01/11 02:34:00;;;;;;;;;;;;;;;0.04;70.51;99946.34;370696;110;1963959;-71
2021/01/11 02:35:08;;;;;;;20.13;10.66;;;;;;;0.11;70.40;99947.52;366229;110;1960921;-71
2021/01/11 02:36:20;;;;;;;18.48;10.62;;;;;;;0.21;70.24;99937.75;367530;109;1961986;-72
2021/01/11 02:37:26;;;;;;;16.31;8.48;;;;;;;0.30;69.83;99938.79;367706;108;1961961;-72
2021/01/11 02:38:33;;;;;;;18.82;10.10;;;;;;;0.35;69.69;99944.55;319394;110;2212806;-72
2021/01/11 02:39:41;;;;;;;16.08;9.55;;;;;;;0.39;69.52;99933.49;364226;110;1962915;-72
2021/01/11 02:40:49;;;;;;;16.49;8.74;;;;;;;0.44;69.54;99933.94;365696;110;1962967;-71
2021/01/11 02:41:55;;;;;;;16.13;10.18;;;;;;;0.43;69.33;99931.42;358589;110;2892907;-72
2021/01/11 02:43:00;;;;;;;18.64;10.39;;;;;;;0.38;69.31;99937.14;340523;108;1961919;-72
2021/01/11 02:44:06;;;;;;;19.73;10.94;;;;;;;0.33;69.47;99933.20;368036;110;1961975;-72
2021/01/11 02:45:11;;;;;;;19.73;10.94;;;;;;;0.26;69.44;99937.36;369837;110;1961933;-72
2021/01/11 02:46:18;;;;;;;18.37;10.81;;;;;;;0.19;69.62;99939.72;369217;110;1962974;-72
2021/01/11 02:47:36;;;;;;;20.39;12.74;;;;;;;0.11;69.83;99944.86;359546;109;1964025;-72
2021/01/11 02:48:56;;;;;;;19.76;12.42;;;;;;;0.05;69.99;99940.05;347706;109;2241025;-72
2021/01/11 02:50:02;;;;;;;20.14;11.44;;;;;;;-0.02;70.30;99934.44;339061;110;2520983;-73
2021/01/11 02:51:14;;;;;;;20.62;11.57;;;;;;;-0.09;70.46;99930.62;366994;110;1961976;-73
2021/01/11 02:52:29;;;;;;;19.16;9.73;;;;;;;-0.13;70.54;99930.05;367635;110;1961999;-72
2021/01/11 02:53:42;;;;;;;18.55;10.44;;;;;;;-0.15;70.52;99924.02;349421;107;2367957;-72
2021/01/11 02:55:06;;;;;;;18.54;9.56;;;;;;;-0.11;70.67;99916.63;364234;110;1961902;-72
2021/01/11 02:56:15;;;;;;;17.15;8.90;;;;;;;-0.05;70.58;99910.81;367770;110;1961980;-72
2021/01/11 02:57:27;;;;;;;19.11;10.33;;;;;;;0.03;70.45;99905.67;365926;110;1962991;-72
2021/01/11 02:58:55;;;;;;;15.76;8.37;;;;;;;0.12;70.34;99909.34;368209;110;1961954;-72
2021/01/11 03:00:04;;;;;;;15.96;9.20;;;;;;;0.23;70.20;99913.72;369424;110;1970008;-71
2021/01/11 03:01:12;;;;;;;19.27;9.82;;;;;;;0.33;69.98;99909.29;368705;109;1962934;-72
2021/01/11 03:02:19;;;;;;;18.01;10.32;;;;;;;0.40;69.89;99911.28;346781;110;2342977;-72
2021/01/11 03:03:26;;;;;;;17.54;10.56;;;;;;;0.47;69.52;99908.07;355193;112;1961936;-72
2021/01/11 03:04:33;;;;;;;21.13;10.56;;;;;;;0.50;69.39;99905.97;348854;110;2226907;-72
2021/01/11 03:05:42;;;;;;;21.56;11.68;;;;;;;0.48;69.29;99901.77;367038;109;1961893;-72
2021/01/11 03:07:02;;;;;;;21.36;12.02;;;;;;;0.41;69.33;99907.63;366726;108;1961942;-72
2021/01/11 03:08:07;;;;;;;21.41;12.52;;;;;;;0.38;69.41;99901.76;359348;113;1961883;-72
2021/01/11 03:09:12;;;;;;;25.19;13.68;;;;;;;0.30;69.39;99899.77;369727;110;1961893;-72
2021/01/11 03:10:19;;;;;;;24.03;13.23;;;;;;;0.24;69.28;99899.45;343652;109;2216050;-72
2021/01/11 03:11:25;;;;;;;22.97;13.14;;;;;;;0.11;69.53;99900.53;356620;108;1961922;-73
2021/01/11 03:12:31;;;;;;;21.24;13.28;;;;;;;0.02;69.76;99903.97;367145;110;1961988;-72
2021/01/11 03:13:36;;;;;;;24.68;14.45;;;;;;;-0.06;69.85;99909.11;363443;110;1962030;-72
2021/01/11 03:14:42;;;;;;;23.08;13.43;;;;;;;-0.14;70.26;99901.80;323800;110;2771928;-72
2021/01/11 03:15:48;;;;;;;22.86;12.64;;;;;;;-0.21;70.43;99911.28;360564;108;1963009;-72
2021/01/11 03:16:55;;;;;;;22.40;12.81;;;;;;;-0.27;70.58;99907.30;359173;109;1960701;-71
2021/01/11 03:18:00;;;;;;;20.46;11.22;;;;;;;-0.30;70.60;99904.08;349770;115;1961971;-72
2021/01/11 03:19:06;;;;;;;18.90;11.17;;;;;;;-0.27;70.74;99903.81;305383;116;2729070;-72
2021/01/11 03:20:13;;;;;;;16.33;9.53;;;;;;;-0.21;70.79;99908.63;343652;117;1961117;-71
2021/01/11 03:21:19;;;;;;;20.50;10.96;;;;;;;-0.13;70.79;99911.46;346725;115;1961940;-71
2021/01/11 03:22:25;;;;;;;18.57;10.09;;;;;;;-0.06;70.67;99904.63;309367;115;2681976;-72
2021/01/11 03:23:30;;;;;;;17.21;10.20;;;;;;;0.03;70.52;99915.43;320588;115;1962031;-71
2021/01/11 03:24:36;;;;;;;14.83;9.12;;;;;;;0.12;70.50;99917.31;345368;115;1963935;-72
2021/01/11 03:25:41;;;;;;;18.72;9.99;;;;;;;0.22;70.35;99923.51;347925;117;1965035;-71
2021/01/11 03:26:50;;;;;;;17.33;10.18;;;;;;;0.29;70.11;99924.67;304827;117;2781003;-72
2021/01/11 03:27:56;;;;;;;19.99;11.49;;;;;;;0.37;69.96;99926.63;345789;117;1964036;-71
2021/01/11 03:29:03;;;;;;;15.37;8.41;;;;;;;0.37;69.67;99910.69;345546;115;1961943;-71
2021/01/11 03:30:09;;;;;;;15.59;8.59;;;;;;;0.51;69.46;99928.94;328448;115;1962007;-73
2021/01/11 03:31:14;;;;;;;16.34;9.28;;;;;;;0.56;69.22;99933.85;345973;115;1961939;-72
2021/01/11 03:32:21;;;;;;;18.61;9.47;;;;;;;0.58;69.15;99932.75;344796;115;1962960;-72
2021/01/11 03:33:26;;;;;;;18.10;9.12;;;;;;;0.54;68.46;99927.83;325380;115;2233937;-72
2021/01/11 03:34:31;;;;;;;17.22;10.27;;;;;;;0.48;68.79;99938.97;328379;115;1963002;-72
2021/01/11 03:35:37;;;;;;;17.58;9.91;;;;;;;0.44;68.80;99933.09;344874;115;1961993;-71
2021/01/11 03:36:46;;;;;;;22.02;14.13;;;;;;;0.40;68.83;99934.36;345756;117;1962047;-72
2021/01/11 03:37:51;;;;;;;24.03;14.56;;;;;;;0.34;69.09;99933.05;347234;115;1961988;-72
2021/01/11 03:38:57;;;;;;;24.76;16.91;;;;;;;0.27;69.32;99939.06;351846;115;1961931;-71
2021/01/11 03:40:03;;;;;;;25.94;17.08;;;;;;;0.21;69.34;99943.93;346064;115;1962023;-72
2021/01/11 03:41:09;;;;;;;28.46;17.31;;;;;;;0.12;69.71;99934.08;323005;117;1962982;-72
2021/01/11 03:42:15;;;;;;;25.24;16.44;;;;;;;0.07;69.69;99943.42;346881;115;1962011;-72
2021/01/11 03:43:21;;;;;;;26.49;16.35;;;;;;;0.03;69.98;99936.67;347264;115;1961990;-71
2021/01/11 03:44:26;;;;;;;25.42;16.81;;;;;;;-0.03;70.17;99935.39;312683;115;2658084;-72
2021/01/11 03:45:32;;;;;;;28.44;16.88;;;;;;;-0.06;70.39;99931.19;334633;115;1961982;-71
2021/01/11 03:46:37;;;;;;;21.79;13.84;;;;;;;-0.11;70.11;99928.08;345445;115;1961946;-72
2021/01/11 03:47:43;;;;;;;19.87;12.89;;;;;;;-0.12;70.16;99925.58;345882;117;1961979;-71
2021/01/11 03:48:49;;;;;;;21.04;11.79;;;;;;;-0.10;70.28;99924.47;342150;117;1961977;-72
2021/01/11 03:49:57;;;;;;;20.70;12.02;;;;;;;-0.05;70.27;99932.89;302595;115;2795029;-72
2021/01/11 03:51:03;;;;;;;18.19;10.01;;;;;;;0.01;70.27;99938.65;344750;115;1962051;-72
2021/01/11 03:52:09;;;;;;;18.73;11.07;;;;;;;0.07;70.28;99938.11;339045;115;2882021;-72
2021/01/11 03:53:14;;;;;;;19.61;11.03;;;;;;;0.14;70.19;99941.93;327819;117;1964013;-72
2021/01/11 03:54:19;;;;;;;20.03;10.78;;;;;;;0.19;69.95;99942.38;345284;115;1962010;-72
2021/01/11 03:55:25;;;;;;;16.72;10.10;;;;;;;0.24;69.98;99937.52;344400;117;1963841;-72
2021/01/11 03:56:32;;;;;;;19.28;10.70;;;;;;;0.32;69.96;99935.02;322915;117;2881948;-71
2021/01/11 03:57:38;;;;;;;18.22;10.83;;;;;;;0.35;69.72;99940.06;341993;117;1961946;-72
2021/01/11 03:58:43;;;;;;;21.45;12.14;;;;;;;0.33;69.53;99939.35;344344;117;1962110;-72
2021/01/11 03:59:48;;;;;;;17.41;11.81;;;;;;;0.32;69.57;99945.66;345105;115;1961993;-72
2021/01/11 04:01:08;;;;;;;15.27;9.13;;;;;;;0.28;69.67;99943.39;308368;116;2754991;-71
2021/01/11 04:02:15;;;;;;;19.64;10.30;;;;;;;0.20;69.12;99947.54;352496;112;1962054;-72
2021/01/11 04:03:20;;;;;;;21.78;13.69;;;;;;;0.12;69.37;99946.53;350678;112;1960679;-72
2021/01/11 04:04:26;;;;;;;20.66;11.16;;;;;;;0.07;69.84;99946.08;351744;115;1962041;-72
2021/01/11 04:05:31;;;;;;;22.93;12.03;;;;;;;0.03;70.09;99949.95;346454;117;1961016;-71
2021/01/11 04:06:39;;;;;;;21.70;12.48;;;;;;;0.00;70.40;99951.09;328337;115;1961877;-72
2021/01/11 04:07:44;;;;;;;21.57;12.44;;;;;;;-0.02;70.72;99956.52;351761;115;1961980;-71
2021/01/11 04:08:49;;;;;;;19.45;11.08;;;;;;;-0.04;70.85;99955.80;351378;115;1962021;-72
2021/01/11 04:09:54;;;;;;;20.56;11.24;;;;;;;-0.02;70.77;99959.17;349920;115;1964955;-71
2021/01/11 04:11:00;;;;;;;19.19;10.24;;;;;;;0.03;70.71;99958.79;350609;115;1962012;-72
2021/01/11 04:12:06;;;;;;;19.69;10.13;;;;;;;0.08;70.48;99955.72;349162;115;1960883;-71
2021/01/11 04:13:12;;;;;;;17.54;9.26;;;;;;;0.14;70.29;99963.19;314516;115;2019449;-71
2021/01/11 04:14:18;;;;;;;17.40;9.08;;;;;;;0.20;70.19;99954.67;335670;115;1961982;-71
2021/01/11 04:15:24;;;;;;;19.09;10.30;;;;;;;0.29;70.11;99958.34;349393;115;1962049;-71
2021/01/11 04:16:30;;;;;;;18.47;9.53;;;;;;;0.37;69.93;99961.17;321362;115;2444928;-72
2021/01/11 04:17:36;;;;;;;16.66;10.03;;;;;;;0.45;69.63;99958.72;341447;115;1962024;-72
2021/01/11 04:18:42;;;;;;;16.38;9.67;;;;;;;0.51;69.55;99958.17;350745;114;1960993;-72
2021/01/11 04:19:48;;;;;;;17.92;10.78;;;;;;;0.56;69.06;99957.78;347431;115;1961946;-73
2021/01/11 04:20:54;;;;;;;18.58;10.56;;;;;;;0.54;68.98;99955.24;315372;115;2014727;-72
2021/01/11 04:22:01;;;;;;;19.08;10.52;;;;;;;0.49;69.17;99957.45;347517;115;1961939;-72
2021/01/11 04:23:07;;;;;;;18.87;10.79;;;;;;;0.44;69.19;99957.85;350497;115;1961856;-72
2021/01/11 04:24:12;;;;;;;20.85;11.37;;;;;;;0.39;69.21;99954.75;326498;114;2491123;-71
2021/01/11 04:25:18;;;;;;;16.15;9.94;;;;;;;0.32;69.44;99958.07;343829;115;1961980;-71
2021/01/11 04:26:24;;;;;;;16.18;9.58;;;;;;;0.28;69.55;99960.16;350267;115;1963024;-71
2021/01/11 04:27:30;;;;;;;17.85;10.66;;;;;;;0.25;69.61;99959.59;344078;115;1961901;-72
2021/01/11 04:28:35;;;;;;;22.27;13.14;;;;;;;0.20;69.66;99966.13;320007;115;2213937;-71
2021/01/11 04:29:41;;;;;;;23.16;13.86;;;;;;;0.17;69.70;99965.57;339301;115;1962038;-72
2021/01/11 04:30:48;;;;;;;17.38;11.32;;;;;;;0.14;69.70;99966.67;349088;115;1962006;-71
2021/01/11 04:31:54;;;;;;;19.50;10.63;;;;;;;0.09;69.96;99971.53;322812;117;2460956;-70
2021/01/11 04:32:59;;;;;;;16.13;10.68;;;;;;;0.04;70.00;99968.43;335533;115;1961965;-72
2021/01/11 04:34:04;;;;;;;16.73;10.23;;;;;;;0.04;69.76;99970.25;351777;115;1961945;-72
2021/01/11 04:35:12;;;;;;;15.32;8.66;;;;;;;-0.01;69.95;99962.67;349084;115;1961992;-73
2021/01/11 04:36:18;;;;;;;17.14;9.89;;;;;;;-0.03;70.08;99956.64;340825;117;1961988;-72
2021/01/11 04:37:24;;;;;;;18.70;10.01;;;;;;;-0.02;69.89;99955.69;352838;115;1961997;-72
2021/01/11 04:38:30;;;;;;;13.35;8.10;;;;;;;-0.03;69.82;99953.98;358649;113;1961887;-72
2021/01/11 04:39:37;;;;;;;15.39;9.55;;;;;;;-0.04;69.83;99953.14;333982;113;2241915;-71
2021/01/11 04:40:44;;;;;;;16.71;9.16;;;;;;;-0.04;69.87;99955.80;358986;113;1960893;-72
2021/01/11 04:41:51;;;;;;;16.73;8.87;;;;;;;-0.04;69.84;99960.28;320730;113;2750894;-72
2021/01/11 04:43:06;;;;;;;16.82;9.48;;;;;;;-0.06;70.04;99954.25;355961;113;1961933;-72
2021/01/11 04:44:13;;;;;;;13.22;7.22;;;;;;;-0.07;70.22;99955.23;349050;115;1963010;-72
2021/01/11 04:45:20;;;;;;;14.50;8.06;;;;;;;-0.10;70.14;99955.50;321477;117;1961905;-72
2021/01/11 04:46:29;;;;;;;14.45;7.37;;;;;;;-0.09;70.15;99959.83;317859;115;2638944;-72
2021/01/11 04:47:36;;;;;;;15.72;9.14;;;;;;;-0.07;69.97;99956.06;351616;115;1961008;-71
2021/01/11 04:48:42;;;;;;;16.09;8.51;;;;;;;0.00;70.06;99953.75;346460;117;1961954;-72
2021/01/11 04:49:47;;;;;;;16.69;8.82;;;;;;;0.06;69.96;99960.34;309061;117;1979811;-72
2021/01/11 04:50:53;;;;;;;17.99;10.28;;;;;;;0.11;69.89;99953.66;343233;118;1962004;-73
2021/01/11 04:52:00;;;;;;;17.51;10.71;;;;;;;0.15;69.92;99949.75;351234;115;1961988;-72
2021/01/11 04:53:20;;;;;;;18.63;11.28;;;;;;;0.17;69.83;99963.75;316307;115;2021264;-71
2021/01/11 04:54:26;;;;;;;17.27;10.46;;;;;;;0.16;69.92;99961.21;340601;119;1961984;-70
2021/01/11 04:55:34;;;;;;;18.14;11.29;;;;;;;0.12;70.14;99962.47;338494;119;1961997;-70
2021/01/11 04:56:43;;;;;;;19.28;10.74;;;;;;;0.10;70.31;99956.44;344221;117;1961994;-70
2021/01/11 04:57:56;;;;;;;18.03;10.53;;;;;;;0.06;70.43;99958.52;329557;117;2238008;-69
2021/01/11 04:59:02;;;;;;;15.77;9.37;;;;;;;0.05;70.53;99959.48;346752;116;1962001;-69
2021/01/11 05:00:11;;;;;;;15.36;7.41;;;;;;;0.08;70.54;99953.06;326248;116;1961853;-69
2021/01/11 05:01:22;;;;;;;15.68;8.98;;;;;;;0.14;70.04;99957.88;345638;117;1961952;-70
2021/01/11 05:02:30;;;;;;;16.91;9.08;;;;;;;0.23;69.94;99956.22;321338;115;1962069;-70
2021/01/11 05:03:36;;;;;;;14.27;7.91;;;;;;;0.29;69.80;99953.89;352087;115;1969040;-71
2021/01/11 05:04:41;;;;;;;15.30;8.05;;;;;;;0.36;69.53;99948.88;335979;115;2250073;-70
2021/01/11 05:05:46;;;;;;;11.52;5.38;;;;;;;0.42;69.30;99946.53;328003;115;1963972;-71
2021/01/11 05:06:58;;;;;;;11.26;5.71;;;;;;;0.43;68.91;99950.03;348380;115;1963031;-70
2021/01/11 05:08:04;;;;;;;9.80;5.28;;;;;;;0.42;68.53;99957.17;348165;115;1962893;-70